sensor_id;sensor_type;location;lat;lon;timestamp;P1;durP1;ratioP1;P2;durP2;ratioP2
35506;SDS011;36461;52.018;21.036;2023-05-20T03:12:20;11.10;;;6.60;;
35506;SDS011;36461;52.018;21.036;2023-05-20T03:14:49;10.30;;;6.60;;
35506;SDS011;36461;52.018;21.036;2023-05-20T03:17:22;9.30;;;6.30;;
35506;SDS011;36461;52.018;21.036;2023-05-20T03:19:50;10.50;;;6.20;;
35506;SDS011;36461;52.018;21.036;2023-05-20T03:22:18;8.00;;;6.20;;
35506;SDS011;36461;52.018;21.036;2023-05-20T03:24:46;8.20;;;5.50;;
35506;SDS011;36461;52.018;21.036;2023-05-20T03:27:15;10.10;;;6.20;;
35506;SDS011;36461;52.018;21.036;2023-05-20T03:29:43;8.50;;;6.40;;
35506;SDS011;36461;52.018;21.036;2023-05-20T03:32:11;9.40;;;6.10;;
35506;SDS011;36461;52.018;21.036;2023-05-20T03:34:39;10.30;;;6.30;;
35506;SDS011;36461;52.018;21.036;2023-05-20T03:37:07;7.90;;;5.90;;
35506;SDS011;36461;52.018;21.036;2023-05-20T03:39:35;7.20;;;5.30;;
35506;SDS011;36461;52.018;21.036;2023-05-20T03:42:03;10.00;;;5.80;;
35506;SDS011;36461;52.018;21.036;2023-05-20T03:44:34;8.40;;;5.60;;
35506;SDS011;36461;52.018;21.036;2023-05-20T03:47:02;14.40;;;7.50;;
35506;SDS011;36461;52.018;21.036;2023-05-20T03:49:31;7.80;;;5.90;;
35506;SDS011;36461;52.018;21.036;2023-05-20T03:51:59;9.60;;;5.90;;
35506;SDS011;36461;52.018;21.036;2023-05-20T03:54:28;7.50;;;5.40;;
35506;SDS011;36461;52.018;21.036;2023-05-20T03:56:58;7.80;;;5.10;;
35506;SDS011;36461;52.018;21.036;2023-05-20T03:59:28;8.90;;;5.80;;
35506;SDS011;36461;52.018;21.036;2023-05-20T04:01:56;12.50;;;7.70;;
35506;SDS011;36461;52.018;21.036;2023-05-20T04:04:26;8.00;;;5.30;;
35506;SDS011;36461;52.018;21.036;2023-05-20T04:06:55;9.30;;;5.10;;
35506;SDS011;36461;52.018;21.036;2023-05-20T04:09:23;8.90;;;5.50;;
35506;SDS011;36461;52.018;21.036;2023-05-20T04:11:51;7.90;;;5.30;;
35506;SDS011;36461;52.018;21.036;2023-05-20T04:14:19;9.30;;;6.10;;
35506;SDS011;36461;52.018;21.036;2023-05-20T04:16:47;9.40;;;5.70;;
35506;SDS011;36461;52.018;21.036;2023-05-20T04:19:17;8.20;;;5.10;;
35506;SDS011;36461;52.018;21.036;2023-05-20T04:21:48;10.70;;;6.10;;
35506;SDS011;36461;52.018;21.036;2023-05-20T04:24:16;7.90;;;4.80;;
35506;SDS011;36461;52.018;21.036;2023-05-20T04:26:44;7.40;;;5.20;;
35506;SDS011;36461;52.018;21.036;2023-05-20T04:29:13;9.50;;;5.30;;
35506;SDS011;36461;52.018;21.036;2023-05-20T04:31:42;7.20;;;4.90;;
35506;SDS011;36461;52.018;21.036;2023-05-20T04:34:13;6.70;;;5.10;;
35506;SDS011;36461;52.018;21.036;2023-05-20T04:36:42;8.50;;;5.40;;
35506;SDS011;36461;52.018;21.036;2023-05-20T04:39:12;7.80;;;5.20;;
35506;SDS011;36461;52.018;21.036;2023-05-20T04:41:40;7.30;;;4.90;;
35506;SDS011;36461;52.018;21.036;2023-05-20T04:44:08;7.80;;;4.80;;
35506;SDS011;36461;52.018;21.036;2023-05-20T04:46:37;8.70;;;5.10;;
35506;SDS011;36461;52.018;21.036;2023-05-20T04:49:06;8.30;;;5.00;;
35506;SDS011;36461;52.018;21.036;2023-05-20T04:51:34;7.20;;;5.30;;
35506;SDS011;36461;52.018;21.036;2023-05-20T04:54:02;7.70;;;5.10;;
35506;SDS011;36461;52.018;21.036;2023-05-20T04:56:30;7.90;;;5.20;;
35506;SDS011;36461;52.018;21.036;2023-05-20T04:58:58;7.70;;;5.30;;
35506;SDS011;36461;52.018;21.036;2023-05-20T05:01:26;6.90;;;5.40;;
35506;SDS011;36461;52.018;21.036;2023-05-20T05:03:54;6.60;;;4.90;;
35506;SDS011;36461;52.018;21.036;2023-05-20T05:06:23;9.30;;;5.40;;
35506;SDS011;36461;52.018;21.036;2023-05-20T05:08:51;6.20;;;5.00;;
35506;SDS011;36461;52.018;21.036;2023-05-20T05:11:19;8.20;;;4.90;;
35506;SDS011;36461;52.018;21.036;2023-05-20T05:13:48;6.50;;;4.80;;
35506;SDS011;36461;52.018;21.036;2023-05-20T05:16:17;6.40;;;4.30;;
35506;SDS011;36461;52.018;21.036;2023-05-20T05:18:45;6.50;;;4.20;;
35506;SDS011;36461;52.018;21.036;2023-05-20T05:21:13;6.00;;;4.30;;
35506;SDS011;36461;52.018;21.036;2023-05-20T05:23:42;7.90;;;4.70;;
35506;SDS011;36461;52.018;21.036;2023-05-20T05:26:10;8.20;;;4.70;;
35506;SDS011;36461;52.018;21.036;2023-05-20T05:28:40;7.80;;;5.00;;
35506;SDS011;36461;52.018;21.036;2023-05-20T05:31:09;6.00;;;4.30;;
35506;SDS011;36461;52.018;21.036;2023-05-20T05:33:38;7.00;;;4.10;;
35506;SDS011;36461;52.018;21.036;2023-05-20T05:36:07;5.00;;;4.40;;
35506;SDS011;36461;52.018;21.036;2023-05-20T05:38:35;6.50;;;4.90;;
35506;SDS011;36461;52.018;21.036;2023-05-20T05:41:03;8.30;;;5.30;;
35506;SDS011;36461;52.018;21.036;2023-05-20T05:43:31;7.30;;;4.20;;
35506;SDS011;36461;52.018;21.036;2023-05-20T05:45:59;5.80;;;4.30;;
35506;SDS011;36461;52.018;21.036;2023-05-20T05:48:28;5.50;;;4.40;;
35506;SDS011;36461;52.018;21.036;2023-05-20T05:50:56;7.00;;;4.90;;
35506;SDS011;36461;52.018;21.036;2023-05-20T05:53:24;6.10;;;4.30;;
35506;SDS011;36461;52.018;21.036;2023-05-20T05:55:52;6.00;;;4.40;;
35506;SDS011;36461;52.018;21.036;2023-05-20T05:58:21;5.80;;;4.50;;
35506;SDS011;36461;52.018;21.036;2023-05-20T06:00:50;6.70;;;4.60;;
35506;SDS011;36461;52.018;21.036;2023-05-20T06:03:19;5.50;;;4.80;;
35506;SDS011;36461;52.018;21.036;2023-05-20T06:05:47;5.90;;;4.70;;
35506;SDS011;36461;52.018;21.036;2023-05-20T06:08:15;7.70;;;4.30;;
35506;SDS011;36461;52.018;21.036;2023-05-20T06:10:50;9.80;;;4.70;;
35506;SDS011;36461;52.018;21.036;2023-05-20T06:13:18;7.50;;;4.40;;
35506;SDS011;36461;52.018;21.036;2023-05-20T06:15:50;5.80;;;4.30;;
35506;SDS011;36461;52.018;21.036;2023-05-20T06:18:18;6.20;;;4.50;;
35506;SDS011;36461;52.018;21.036;2023-05-20T06:20:53;7.90;;;4.60;;
35506;SDS011;36461;52.018;21.036;2023-05-20T06:23:22;9.30;;;4.60;;
35506;SDS011;36461;52.018;21.036;2023-05-20T06:25:57;9.00;;;4.70;;
35506;SDS011;36461;52.018;21.036;2023-05-20T06:28:26;9.10;;;4.40;;
35506;SDS011;36461;52.018;21.036;2023-05-20T06:30:54;6.40;;;4.50;;
35506;SDS011;36461;52.018;21.036;2023-05-20T06:33:25;8.60;;;4.60;;
35506;SDS011;36461;52.018;21.036;2023-05-20T06:35:59;6.80;;;4.60;;
35506;SDS011;36461;52.018;21.036;2023-05-20T06:38:28;5.70;;;4.40;;
35506;SDS011;36461;52.018;21.036;2023-05-20T06:40:56;5.10;;;4.50;;
35506;SDS011;36461;52.018;21.036;2023-05-20T06:43:24;5.20;;;4.40;;
35506;SDS011;36461;52.018;21.036;2023-05-20T06:45:59;7.50;;;5.20;;
35506;SDS011;36461;52.018;21.036;2023-05-20T06:48:33;6.50;;;4.80;;
35506;SDS011;36461;52.018;21.036;2023-05-20T06:51:01;6.90;;;4.50;;
35506;SDS011;36461;52.018;21.036;2023-05-20T06:53:29;7.90;;;5.00;;
35506;SDS011;36461;52.018;21.036;2023-05-20T06:55:57;9.70;;;4.70;;
35506;SDS011;36461;52.018;21.036;2023-05-20T06:58:26;6.40;;;4.00;;
35506;SDS011;36461;52.018;21.036;2023-05-20T07:00:56;8.50;;;4.80;;
35506;SDS011;36461;52.018;21.036;2023-05-20T07:03:25;6.20;;;4.40;;
35506;SDS011;36461;52.018;21.036;2023-05-20T07:05:53;7.30;;;4.80;;
35506;SDS011;36461;52.018;21.036;2023-05-20T07:08:21;6.70;;;4.20;;
35506;SDS011;36461;52.018;21.036;2023-05-20T07:10:49;9.20;;;5.50;;
35506;SDS011;36461;52.018;21.036;2023-05-20T07:13:20;8.20;;;4.30;;
35506;SDS011;36461;52.018;21.036;2023-05-20T07:15:51;7.60;;;4.50;;
35506;SDS011;36461;52.018;21.036;2023-05-20T07:18:19;7.00;;;4.40;;
35506;SDS011;36461;52.018;21.036;2023-05-20T07:20:52;7.10;;;4.40;;
35506;SDS011;36461;52.018;21.036;2023-05-20T07:23:41;5.90;;;4.30;;
35506;SDS011;36461;52.018;21.036;2023-05-20T07:26:09;8.60;;;4.50;;
35506;SDS011;36461;52.018;21.036;2023-05-20T07:28:38;7.10;;;4.60;;
35506;SDS011;36461;52.018;21.036;2023-05-20T07:31:06;6.20;;;4.70;;
35506;SDS011;36461;52.018;21.036;2023-05-20T07:33:41;6.10;;;4.50;;
35506;SDS011;36461;52.018;21.036;2023-05-20T07:36:09;5.30;;;4.60;;
35506;SDS011;36461;52.018;21.036;2023-05-20T07:38:39;6.20;;;4.60;;
35506;SDS011;36461;52.018;21.036;2023-05-20T07:41:19;8.30;;;4.50;;
35506;SDS011;36461;52.018;21.036;2023-05-20T07:43:48;6.40;;;4.40;;
35506;SDS011;36461;52.018;21.036;2023-05-20T07:46:16;7.40;;;4.20;;
35506;SDS011;36461;52.018;21.036;2023-05-20T07:48:46;10.00;;;5.00;;
35506;SDS011;36461;52.018;21.036;2023-05-20T07:51:15;6.70;;;4.70;;
35506;SDS011;36461;52.018;21.036;2023-05-20T07:53:43;8.10;;;4.80;;
35506;SDS011;36461;52.018;21.036;2023-05-20T07:56:11;6.40;;;4.30;;
35506;SDS011;36461;52.018;21.036;2023-05-20T07:58:40;4.70;;;4.30;;
35506;SDS011;36461;52.018;21.036;2023-05-20T08:01:09;6.30;;;4.70;;
35506;SDS011;36461;52.018;21.036;2023-05-20T08:03:38;7.60;;;4.60;;
35506;SDS011;36461;52.018;21.036;2023-05-20T08:06:10;9.40;;;5.20;;
35506;SDS011;36461;52.018;21.036;2023-05-20T08:08:39;5.40;;;4.50;;
35506;SDS011;36461;52.018;21.036;2023-05-20T08:11:16;6.90;;;4.70;;
35506;SDS011;36461;52.018;21.036;2023-05-20T08:13:45;6.80;;;5.10;;
35506;SDS011;36461;52.018;21.036;2023-05-20T08:16:13;5.10;;;4.40;;
35506;SDS011;36461;52.018;21.036;2023-05-20T08:18:43;4.80;;;4.30;;
35506;SDS011;36461;52.018;21.036;2023-05-20T08:21:12;6.40;;;5.10;;
35506;SDS011;36461;52.018;21.036;2023-05-20T08:23:40;6.20;;;4.50;;
35506;SDS011;36461;52.018;21.036;2023-05-20T08:26:08;7.60;;;4.70;;
35506;SDS011;36461;52.018;21.036;2023-05-20T08:28:39;8.80;;;4.70;;
35506;SDS011;36461;52.018;21.036;2023-05-20T08:31:07;10.40;;;4.80;;
35506;SDS011;36461;52.018;21.036;2023-05-20T08:33:36;5.40;;;4.70;;
35506;SDS011;36461;52.018;21.036;2023-05-20T08:36:05;6.50;;;4.60;;
35506;SDS011;36461;52.018;21.036;2023-05-20T08:38:35;6.20;;;4.30;;
35506;SDS011;36461;52.018;21.036;2023-05-20T08:41:03;5.20;;;4.40;;
35506;SDS011;36461;52.018;21.036;2023-05-20T08:43:31;7.00;;;5.30;;
35506;SDS011;36461;52.018;21.036;2023-05-20T08:45:59;6.80;;;4.90;;
35506;SDS011;36461;52.018;21.036;2023-05-20T08:48:33;5.60;;;5.00;;
35506;SDS011;36461;52.018;21.036;2023-05-20T08:51:02;5.30;;;4.70;;
35506;SDS011;36461;52.018;21.036;2023-05-20T08:53:32;5.50;;;4.40;;
35506;SDS011;36461;52.018;21.036;2023-05-20T08:56:00;6.20;;;5.40;;
35506;SDS011;36461;52.018;21.036;2023-05-20T08:58:32;7.20;;;5.30;;
35506;SDS011;36461;52.018;21.036;2023-05-20T09:00:59;6.50;;;4.50;;
35506;SDS011;36461;52.018;21.036;2023-05-20T09:03:28;7.10;;;4.50;;
35506;SDS011;36461;52.018;21.036;2023-05-20T09:06:03;5.60;;;4.40;;
35506;SDS011;36461;52.018;21.036;2023-05-20T09:08:34;6.40;;;4.70;;
35506;SDS011;36461;52.018;21.036;2023-05-20T09:11:04;8.60;;;4.70;;
35506;SDS011;36461;52.018;21.036;2023-05-20T09:13:32;6.20;;;4.70;;
35506;SDS011;36461;52.018;21.036;2023-05-20T09:15:59;5.40;;;4.80;;
35506;SDS011;36461;52.018;21.036;2023-05-20T09:18:30;6.50;;;4.40;;
35506;SDS011;36461;52.018;21.036;2023-05-20T09:21:03;4.90;;;4.20;;
35506;SDS011;36461;52.018;21.036;2023-05-20T09:23:36;5.60;;;4.90;;
35506;SDS011;36461;52.018;21.036;2023-05-20T09:26:05;5.90;;;4.90;;
35506;SDS011;36461;52.018;21.036;2023-05-20T09:28:33;6.10;;;4.60;;
35506;SDS011;36461;52.018;21.036;2023-05-20T09:31:05;7.80;;;4.70;;
35506;SDS011;36461;52.018;21.036;2023-05-20T09:33:34;8.50;;;5.30;;
35506;SDS011;36461;52.018;21.036;2023-05-20T09:36:04;7.20;;;5.20;;
35506;SDS011;36461;52.018;21.036;2023-05-20T09:38:38;7.60;;;4.80;;
35506;SDS011;36461;52.018;21.036;2023-05-20T09:41:08;5.70;;;5.00;;
35506;SDS011;36461;52.018;21.036;2023-05-20T09:43:38;7.50;;;5.10;;
35506;SDS011;36461;52.018;21.036;2023-05-20T09:46:07;7.00;;;5.00;;
35506;SDS011;36461;52.018;21.036;2023-05-20T09:48:36;7.90;;;4.80;;
35506;SDS011;36461;52.018;21.036;2023-05-20T09:51:05;7.20;;;5.10;;
35506;SDS011;36461;52.018;21.036;2023-05-20T09:53:35;7.10;;;5.30;;
35506;SDS011;36461;52.018;21.036;2023-05-20T09:56:03;5.50;;;5.00;;
35506;SDS011;36461;52.018;21.036;2023-05-20T09:58:32;9.30;;;5.00;;
35506;SDS011;36461;52.018;21.036;2023-05-20T10:01:03;7.10;;;4.90;;
35506;SDS011;36461;52.018;21.036;2023-05-20T10:03:32;6.20;;;4.80;;
35506;SDS011;36461;52.018;21.036;2023-05-20T10:12:04;6.80;;;4.90;;
35506;SDS011;36461;52.018;21.036;2023-05-20T10:20:19;10.50;;;5.30;;
35506;SDS011;36461;52.018;21.036;2023-05-20T10:22:56;11.40;;;5.40;;
35506;SDS011;36461;52.018;21.036;2023-05-20T10:25:26;7.00;;;5.00;;
35506;SDS011;36461;52.018;21.036;2023-05-20T10:28:06;6.60;;;5.60;;
35506;SDS011;36461;52.018;21.036;2023-05-20T10:30:35;6.40;;;5.30;;
35506;SDS011;36461;52.018;21.036;2023-05-20T10:33:04;11.60;;;5.40;;
35506;SDS011;36461;52.018;21.036;2023-05-20T10:35:34;8.40;;;5.40;;
35506;SDS011;36461;52.018;21.036;2023-05-20T10:38:08;8.20;;;5.90;;
35506;SDS011;36461;52.018;21.036;2023-05-20T10:43:10;7.60;;;5.60;;
35506;SDS011;36461;52.018;21.036;2023-05-20T10:45:52;6.50;;;5.80;;
35506;SDS011;36461;52.018;21.036;2023-05-20T10:48:28;6.90;;;5.80;;
35506;SDS011;36461;52.018;21.036;2023-05-20T10:50:59;5.80;;;5.20;;
35506;SDS011;36461;52.018;21.036;2023-05-20T10:53:37;7.00;;;5.00;;
35506;SDS011;36461;52.018;21.036;2023-05-20T10:58:48;6.90;;;5.30;;
35506;SDS011;36461;52.018;21.036;2023-05-20T11:01:21;6.90;;;5.70;;
35506;SDS011;36461;52.018;21.036;2023-05-20T11:03:52;9.30;;;5.30;;
35506;SDS011;36461;52.018;21.036;2023-05-20T11:06:26;7.60;;;5.90;;
35506;SDS011;36461;52.018;21.036;2023-05-20T11:08:55;8.30;;;6.10;;
35506;SDS011;36461;52.018;21.036;2023-05-20T11:13:59;6.00;;;5.10;;
35506;SDS011;36461;52.018;21.036;2023-05-20T11:16:27;7.10;;;6.00;;
35506;SDS011;36461;52.018;21.036;2023-05-20T11:18:55;8.00;;;5.50;;
35506;SDS011;36461;52.018;21.036;2023-05-20T11:21:24;6.60;;;5.80;;
35506;SDS011;36461;52.018;21.036;2023-05-20T11:23:52;6.90;;;6.30;;
35506;SDS011;36461;52.018;21.036;2023-05-20T11:26:19;9.80;;;6.10;;
35506;SDS011;36461;52.018;21.036;2023-05-20T11:28:47;6.90;;;6.20;;
35506;SDS011;36461;52.018;21.036;2023-05-20T11:31:16;7.90;;;6.00;;
35506;SDS011;36461;52.018;21.036;2023-05-20T11:33:45;6.80;;;6.10;;
35506;SDS011;36461;52.018;21.036;2023-05-20T11:36:13;8.60;;;6.20;;
35506;SDS011;36461;52.018;21.036;2023-05-20T11:38:58;7.30;;;5.70;;
35506;SDS011;36461;52.018;21.036;2023-05-20T11:41:26;6.70;;;5.90;;
35506;SDS011;36461;52.018;21.036;2023-05-20T11:43:58;8.20;;;6.10;;
35506;SDS011;36461;52.018;21.036;2023-05-20T11:46:27;8.10;;;6.20;;
35506;SDS011;36461;52.018;21.036;2023-05-20T11:48:56;8.20;;;6.30;;
35506;SDS011;36461;52.018;21.036;2023-05-20T11:51:27;7.20;;;6.50;;
35506;SDS011;36461;52.018;21.036;2023-05-20T11:54:00;6.90;;;6.00;;
35506;SDS011;36461;52.018;21.036;2023-05-20T11:56:30;8.40;;;6.30;;
35506;SDS011;36461;52.018;21.036;2023-05-20T11:58:59;7.30;;;6.30;;
35506;SDS011;36461;52.018;21.036;2023-05-20T12:01:29;8.70;;;6.50;;
35506;SDS011;36461;52.018;21.036;2023-05-20T12:04:00;7.10;;;6.50;;
35506;SDS011;36461;52.018;21.036;2023-05-20T12:06:28;6.60;;;5.90;;
35506;SDS011;36461;52.018;21.036;2023-05-20T12:08:57;8.10;;;6.10;;
35506;SDS011;36461;52.018;21.036;2023-05-20T12:11:33;6.90;;;5.70;;
35506;SDS011;36461;52.018;21.036;2023-05-20T12:14:03;8.80;;;5.90;;
35506;SDS011;36461;52.018;21.036;2023-05-20T12:16:32;7.10;;;6.40;;
35506;SDS011;36461;52.018;21.036;2023-05-20T12:19:01;6.70;;;5.80;;
35506;SDS011;36461;52.018;21.036;2023-05-20T12:21:30;7.40;;;6.30;;
35506;SDS011;36461;52.018;21.036;2023-05-20T12:23:58;7.30;;;5.70;;
35506;SDS011;36461;52.018;21.036;2023-05-20T12:26:27;7.40;;;6.10;;
35506;SDS011;36461;52.018;21.036;2023-05-20T12:28:56;8.20;;;6.40;;
35506;SDS011;36461;52.018;21.036;2023-05-20T12:31:24;6.60;;;5.90;;
35506;SDS011;36461;52.018;21.036;2023-05-20T12:33:53;6.10;;;5.50;;
35506;SDS011;36461;52.018;21.036;2023-05-20T12:36:21;7.10;;;5.90;;
35506;SDS011;36461;52.018;21.036;2023-05-20T12:38:49;8.00;;;6.30;;
35506;SDS011;36461;52.018;21.036;2023-05-20T12:41:16;6.70;;;5.90;;
35506;SDS011;36461;52.018;21.036;2023-05-20T12:43:44;6.50;;;5.90;;
35506;SDS011;36461;52.018;21.036;2023-05-20T12:46:12;7.60;;;6.30;;
35506;SDS011;36461;52.018;21.036;2023-05-20T12:48:40;6.10;;;5.50;;
35506;SDS011;36461;52.018;21.036;2023-05-20T12:51:09;9.00;;;5.70;;
35506;SDS011;36461;52.018;21.036;2023-05-20T12:53:37;6.30;;;5.70;;
35506;SDS011;36461;52.018;21.036;2023-05-20T12:56:05;6.70;;;5.70;;
35506;SDS011;36461;52.018;21.036;2023-05-20T12:58:34;7.50;;;5.80;;
35506;SDS011;36461;52.018;21.036;2023-05-20T13:01:02;8.60;;;5.90;;
35506;SDS011;36461;52.018;21.036;2023-05-20T13:03:31;6.60;;;5.70;;
35506;SDS011;36461;52.018;21.036;2023-05-20T13:05:59;6.20;;;5.50;;
35506;SDS011;36461;52.018;21.036;2023-05-20T13:08:27;7.00;;;6.30;;
35506;SDS011;36461;52.018;21.036;2023-05-20T13:10:55;6.80;;;5.90;;
35506;SDS011;36461;52.018;21.036;2023-05-20T13:13:23;8.50;;;5.80;;
35506;SDS011;36461;52.018;21.036;2023-05-20T13:15:51;6.90;;;5.90;;
35506;SDS011;36461;52.018;21.036;2023-05-20T13:18:19;6.90;;;6.10;;
35506;SDS011;36461;52.018;21.036;2023-05-20T13:20:47;7.50;;;6.20;;
35506;SDS011;36461;52.018;21.036;2023-05-20T13:23:16;7.70;;;5.60;;
35506;SDS011;36461;52.018;21.036;2023-05-20T13:25:44;6.10;;;5.60;;
35506;SDS011;36461;52.018;21.036;2023-05-20T13:28:12;7.10;;;5.80;;
35506;SDS011;36461;52.018;21.036;2023-05-20T13:30:43;8.20;;;5.20;;
35506;SDS011;36461;52.018;21.036;2023-05-20T13:33:11;7.50;;;5.70;;
35506;SDS011;36461;52.018;21.036;2023-05-20T13:35:39;8.30;;;6.10;;
35506;SDS011;36461;52.018;21.036;2023-05-20T13:38:07;8.10;;;6.20;;
35506;SDS011;36461;52.018;21.036;2023-05-20T13:40:35;6.30;;;5.70;;
35506;SDS011;36461;52.018;21.036;2023-05-20T13:43:03;7.10;;;6.40;;
35506;SDS011;36461;52.018;21.036;2023-05-20T13:45:31;7.30;;;5.80;;
35506;SDS011;36461;52.018;21.036;2023-05-20T13:47:59;7.70;;;6.30;;
35506;SDS011;36461;52.018;21.036;2023-05-20T13:50:27;7.30;;;6.00;;
35506;SDS011;36461;52.018;21.036;2023-05-20T13:52:55;6.80;;;5.80;;
35506;SDS011;36461;52.018;21.036;2023-05-20T13:55:23;10.50;;;6.60;;
35506;SDS011;36461;52.018;21.036;2023-05-20T13:57:51;8.50;;;5.50;;
35506;SDS011;36461;52.018;21.036;2023-05-20T14:00:20;6.20;;;5.50;;
35506;SDS011;36461;52.018;21.036;2023-05-20T14:02:49;8.00;;;6.30;;
35506;SDS011;36461;52.018;21.036;2023-05-20T14:05:17;8.10;;;6.60;;
35506;SDS011;36461;52.018;21.036;2023-05-20T14:07:45;7.40;;;5.90;;
35506;SDS011;36461;52.018;21.036;2023-05-20T14:10:13;6.90;;;5.70;;
35506;SDS011;36461;52.018;21.036;2023-05-20T14:12:41;8.50;;;6.00;;
35506;SDS011;36461;52.018;21.036;2023-05-20T14:15:14;6.00;;;5.40;;
35506;SDS011;36461;52.018;21.036;2023-05-20T14:17:42;6.70;;;5.30;;
35506;SDS011;36461;52.018;21.036;2023-05-20T14:20:11;6.20;;;5.60;;
35506;SDS011;36461;52.018;21.036;2023-05-20T14:22:39;8.40;;;6.00;;
35506;SDS011;36461;52.018;21.036;2023-05-20T14:25:07;7.60;;;6.00;;
35506;SDS011;36461;52.018;21.036;2023-05-20T14:27:35;11.90;;;5.90;;
35506;SDS011;36461;52.018;21.036;2023-05-20T14:30:03;6.80;;;5.90;;
35506;SDS011;36461;52.018;21.036;2023-05-20T14:32:32;9.40;;;6.00;;
35506;SDS011;36461;52.018;21.036;2023-05-20T14:35:00;6.30;;;5.20;;
35506;SDS011;36461;52.018;21.036;2023-05-20T14:37:28;6.80;;;5.70;;
35506;SDS011;36461;52.018;21.036;2023-05-20T14:39:57;6.30;;;5.70;;
35506;SDS011;36461;52.018;21.036;2023-05-20T14:42:25;6.60;;;5.60;;
35506;SDS011;36461;52.018;21.036;2023-05-20T14:44:53;6.80;;;6.00;;
35506;SDS011;36461;52.018;21.036;2023-05-20T14:47:21;6.70;;;5.40;;
35506;SDS011;36461;52.018;21.036;2023-05-20T14:49:49;6.50;;;5.40;;
35506;SDS011;36461;52.018;21.036;2023-05-20T14:52:17;6.70;;;5.50;;
35506;SDS011;36461;52.018;21.036;2023-05-20T14:54:46;6.80;;;5.70;;
35506;SDS011;36461;52.018;21.036;2023-05-20T14:57:14;7.20;;;5.70;;
35506;SDS011;36461;52.018;21.036;2023-05-20T14:59:45;7.50;;;6.00;;
35506;SDS011;36461;52.018;21.036;2023-05-20T15:02:13;6.90;;;5.30;;
35506;SDS011;36461;52.018;21.036;2023-05-20T15:04:43;8.10;;;5.30;;
35506;SDS011;36461;52.018;21.036;2023-05-20T15:07:14;5.90;;;5.30;;
35506;SDS011;36461;52.018;21.036;2023-05-20T15:09:43;5.90;;;5.30;;
35506;SDS011;36461;52.018;21.036;2023-05-20T15:12:11;6.90;;;6.20;;
35506;SDS011;36461;52.018;21.036;2023-05-20T15:14:39;7.00;;;6.10;;
35506;SDS011;36461;52.018;21.036;2023-05-20T15:17:07;7.30;;;6.10;;
35506;SDS011;36461;52.018;21.036;2023-05-20T15:19:36;7.70;;;5.20;;
35506;SDS011;36461;52.018;21.036;2023-05-20T15:22:08;6.80;;;5.60;;
35506;SDS011;36461;52.018;21.036;2023-05-20T15:24:36;5.90;;;5.30;;
35506;SDS011;36461;52.018;21.036;2023-05-20T15:27:04;6.90;;;5.20;;
35506;SDS011;36461;52.018;21.036;2023-05-20T15:29:33;9.40;;;6.10;;
35506;SDS011;36461;52.018;21.036;2023-05-20T15:32:01;9.80;;;5.70;;
35506;SDS011;36461;52.018;21.036;2023-05-20T15:34:29;8.50;;;6.00;;
35506;SDS011;36461;52.018;21.036;2023-05-20T15:36:57;6.60;;;5.60;;
35506;SDS011;36461;52.018;21.036;2023-05-20T15:39:25;9.90;;;6.90;;
35506;SDS011;36461;52.018;21.036;2023-05-20T15:41:53;10.00;;;5.90;;
35506;SDS011;36461;52.018;21.036;2023-05-20T15:44:21;8.30;;;6.50;;
35506;SDS011;36461;52.018;21.036;2023-05-20T15:46:49;6.90;;;6.30;;
35506;SDS011;36461;52.018;21.036;2023-05-20T15:49:17;8.30;;;6.10;;
35506;SDS011;36461;52.018;21.036;2023-05-20T15:51:45;8.00;;;5.60;;
35506;SDS011;36461;52.018;21.036;2023-05-20T15:54:29;6.70;;;6.10;;
35506;SDS011;36461;52.018;21.036;2023-05-20T15:56:58;10.30;;;7.70;;
35506;SDS011;36461;52.018;21.036;2023-05-20T15:59:26;8.20;;;7.30;;
35506;SDS011;36461;52.018;21.036;2023-05-20T16:01:54;7.80;;;7.00;;
35506;SDS011;36461;52.018;21.036;2023-05-20T16:04:22;10.80;;;7.40;;
35506;SDS011;36461;52.018;21.036;2023-05-20T16:06:51;8.20;;;6.10;;
35506;SDS011;36461;52.018;21.036;2023-05-20T16:09:19;10.10;;;6.10;;
35506;SDS011;36461;52.018;21.036;2023-05-20T16:11:47;7.90;;;6.20;;
35506;SDS011;36461;52.018;21.036;2023-05-20T16:14:15;9.80;;;6.90;;
35506;SDS011;36461;52.018;21.036;2023-05-20T16:16:44;7.70;;;6.00;;
35506;SDS011;36461;52.018;21.036;2023-05-20T16:19:12;11.20;;;7.00;;
35506;SDS011;36461;52.018;21.036;2023-05-20T16:21:40;7.40;;;6.40;;
35506;SDS011;36461;52.018;21.036;2023-05-20T16:24:08;9.30;;;7.20;;
35506;SDS011;36461;52.018;21.036;2023-05-20T16:26:36;9.10;;;6.60;;
35506;SDS011;36461;52.018;21.036;2023-05-20T16:29:04;12.60;;;7.00;;
35506;SDS011;36461;52.018;21.036;2023-05-20T16:31:32;9.80;;;6.40;;
35506;SDS011;36461;52.018;21.036;2023-05-20T16:34:01;7.20;;;6.30;;
35506;SDS011;36461;52.018;21.036;2023-05-20T16:36:31;9.80;;;6.50;;
35506;SDS011;36461;52.018;21.036;2023-05-20T16:38:59;9.30;;;6.90;;
35506;SDS011;36461;52.018;21.036;2023-05-20T16:41:27;11.70;;;7.20;;
35506;SDS011;36461;52.018;21.036;2023-05-20T16:43:55;7.60;;;6.80;;
35506;SDS011;36461;52.018;21.036;2023-05-20T16:46:23;6.90;;;5.80;;
35506;SDS011;36461;52.018;21.036;2023-05-20T16:48:51;8.90;;;6.00;;
35506;SDS011;36461;52.018;21.036;2023-05-20T16:51:19;7.10;;;6.30;;
35506;SDS011;36461;52.018;21.036;2023-05-20T16:53:47;8.00;;;6.40;;
35506;SDS011;36461;52.018;21.036;2023-05-20T16:56:15;10.20;;;6.40;;
35506;SDS011;36461;52.018;21.036;2023-05-20T16:58:43;7.50;;;6.60;;
35506;SDS011;36461;52.018;21.036;2023-05-20T17:01:11;21.30;;;12.40;;
35506;SDS011;36461;52.018;21.036;2023-05-20T17:03:39;14.50;;;9.00;;
35506;SDS011;36461;52.018;21.036;2023-05-20T17:06:07;9.00;;;7.10;;
35506;SDS011;36461;52.018;21.036;2023-05-20T17:08:36;12.00;;;7.10;;
35506;SDS011;36461;52.018;21.036;2023-05-20T17:11:04;7.10;;;6.40;;
35506;SDS011;36461;52.018;21.036;2023-05-20T17:13:32;11.10;;;6.80;;
35506;SDS011;36461;52.018;21.036;2023-05-20T17:16:00;9.10;;;5.90;;
35506;SDS011;36461;52.018;21.036;2023-05-20T17:18:29;6.90;;;6.10;;
35506;SDS011;36461;52.018;21.036;2023-05-20T17:20:57;8.90;;;6.40;;
35506;SDS011;36461;52.018;21.036;2023-05-20T17:23:25;8.70;;;6.30;;
35506;SDS011;36461;52.018;21.036;2023-05-20T17:25:53;8.00;;;6.20;;
35506;SDS011;36461;52.018;21.036;2023-05-20T17:28:21;11.80;;;7.10;;
35506;SDS011;36461;52.018;21.036;2023-05-20T17:30:49;8.30;;;5.90;;
35506;SDS011;36461;52.018;21.036;2023-05-20T17:33:17;8.70;;;5.80;;
35506;SDS011;36461;52.018;21.036;2023-05-20T17:35:45;9.70;;;6.60;;
35506;SDS011;36461;52.018;21.036;2023-05-20T17:38:13;8.00;;;6.10;;
35506;SDS011;36461;52.018;21.036;2023-05-20T17:40:41;9.00;;;6.50;;
35506;SDS011;36461;52.018;21.036;2023-05-20T17:43:09;12.00;;;7.30;;
35506;SDS011;36461;52.018;21.036;2023-05-20T17:45:37;9.80;;;6.40;;
35506;SDS011;36461;52.018;21.036;2023-05-20T17:48:05;9.60;;;6.60;;
35506;SDS011;36461;52.018;21.036;2023-05-20T17:50:37;10.50;;;6.70;;
35506;SDS011;36461;52.018;21.036;2023-05-20T17:53:05;9.20;;;6.00;;
35506;SDS011;36461;52.018;21.036;2023-05-20T17:55:33;9.20;;;5.90;;
35506;SDS011;36461;52.018;21.036;2023-05-20T17:58:03;7.10;;;6.00;;
35506;SDS011;36461;52.018;21.036;2023-05-20T18:00:32;11.10;;;6.40;;
35506;SDS011;36461;52.018;21.036;2023-05-20T18:03:01;7.80;;;5.90;;
35506;SDS011;36461;52.018;21.036;2023-05-20T18:05:29;7.90;;;6.10;;
35506;SDS011;36461;52.018;21.036;2023-05-20T18:07:57;8.80;;;5.80;;
35506;SDS011;36461;52.018;21.036;2023-05-20T18:10:25;6.70;;;6.00;;
35506;SDS011;36461;52.018;21.036;2023-05-20T18:12:54;6.50;;;5.90;;
35506;SDS011;36461;52.018;21.036;2023-05-20T18:15:22;10.20;;;7.60;;